createdAt,value
2023-02-09T00:00:25.871Z,35.77
2023-02-09T00:02:52.463Z,37.03
2023-02-09T00:05:19.268Z,39.70
2023-02-09T00:07:45.884Z,36.13
2023-02-09T00:10:12.536Z,36.70
2023-02-09T00:12:57.629Z,37.00
2023-02-09T00:15:24.210Z,35.23
2023-02-09T00:17:50.788Z,37.13
2023-02-09T00:20:17.617Z,36.57
2023-02-09T00:22:44.186Z,35.63
2023-02-09T00:25:10.822Z,37.97
2023-02-09T00:27:37.422Z,37.53
2023-02-09T00:30:04.743Z,35.43
2023-02-09T00:32:32.982Z,37.60
2023-02-09T00:34:59.646Z,34.57
2023-02-09T00:37:27.991Z,37.37
2023-02-09T00:39:54.586Z,36.93
2023-02-09T00:42:21.197Z,42.17
2023-02-09T00:44:47.860Z,39.73
2023-02-09T00:47:14.778Z,36.87
2023-02-09T00:49:41.467Z,37.90
2023-02-09T00:52:09.896Z,35.90
2023-02-09T00:54:37.037Z,38.60
2023-02-09T00:57:05.414Z,38.50
2023-02-09T00:59:35.145Z,39.00
2023-02-09T01:02:02.860Z,34.43
2023-02-09T01:04:29.549Z,37.10
2023-02-09T01:06:56.285Z,36.30
2023-02-09T01:09:22.952Z,36.90
2023-02-09T01:11:49.605Z,35.77
2023-02-09T01:14:16.895Z,40.13
2023-02-09T01:16:43.645Z,37.33
2023-02-09T01:19:13.136Z,38.67
2023-02-09T01:21:39.878Z,38.77
2023-02-09T01:24:06.821Z,36.07
2023-02-09T01:26:33.695Z,34.93
2023-02-09T01:29:00.362Z,42.27
2023-02-09T01:31:33.960Z,39.47
2023-02-09T01:34:02.838Z,36.73
2023-02-09T01:36:31.164Z,35.27
2023-02-09T01:39:00.299Z,33.03
2023-02-09T01:41:27.506Z,36.77
2023-02-09T01:44:06.391Z,35.80
2023-02-09T01:46:34.980Z,37.77
2023-02-09T01:49:15.084Z,38.43
2023-02-09T01:51:54.418Z,38.77
2023-02-09T01:54:49.976Z,37.67
2023-02-09T01:57:23.442Z,37.33
2023-02-09T01:59:56.348Z,37.90
2023-02-09T02:02:23.440Z,37.37
2023-02-09T02:04:51.126Z,37.17
2023-02-09T02:07:28.020Z,36.33
2023-02-09T02:09:54.754Z,38.90
2023-02-09T02:12:22.154Z,37.63
2023-02-09T02:14:48.765Z,35.47
2023-02-09T02:17:42.075Z,39.43
2023-02-09T02:20:20.942Z,35.47
2023-02-09T02:22:57.041Z,39.23
2023-02-09T02:26:07.154Z,36.77
2023-02-09T02:29:18.350Z,38.20
2023-02-09T02:32:11.088Z,35.40
2023-02-09T02:34:48.746Z,36.07
2023-02-09T02:37:39.857Z,42.43
2023-02-09T02:40:28.394Z,36.20
2023-02-09T02:43:08.892Z,38.00
2023-02-09T02:46:00.443Z,34.83
2023-02-09T02:48:43.836Z,37.10
2023-02-09T02:51:23.778Z,35.80
2023-02-09T02:53:56.587Z,36.47
2023-02-09T02:56:39.978Z,37.73
2023-02-09T02:59:11.671Z,38.37
2023-02-09T03:01:43.736Z,41.07
2023-02-09T03:04:12.886Z,34.37
2023-02-09T03:06:39.552Z,37.27
2023-02-09T03:09:07.052Z,34.10
2023-02-09T03:11:41.662Z,38.00
2023-02-09T03:14:47.891Z,38.00
2023-02-09T03:17:41.135Z,36.60
2023-02-09T03:20:16.702Z,37.10
2023-02-09T03:22:51.140Z,35.97
2023-02-09T03:25:40.120Z,35.80
2023-02-09T03:28:12.634Z,37.90
2023-02-09T03:30:42.404Z,37.63
2023-02-09T03:33:24.809Z,34.93
2023-02-09T03:35:55.915Z,34.77
2023-02-09T03:38:23.133Z,36.17
2023-02-09T03:40:49.788Z,33.83
2023-02-09T03:43:16.402Z,35.50
2023-02-09T03:45:43.099Z,34.03
2023-02-09T03:48:09.783Z,35.33
2023-02-09T03:50:37.122Z,35.20
2023-02-09T03:53:07.579Z,32.53
2023-02-09T03:55:34.664Z,36.23
2023-02-09T03:58:01.303Z,32.93
2023-02-09T04:00:28.165Z,33.43
2023-02-09T04:02:54.867Z,34.90
2023-02-09T04:05:22.835Z,34.93
2023-02-09T04:07:49.645Z,36.97
2023-02-09T04:10:16.332Z,34.73
2023-02-09T04:12:42.941Z,32.37
2023-02-09T04:15:10.185Z,34.03
2023-02-09T04:17:36.783Z,35.00
2023-02-09T04:20:03.624Z,36.23
2023-02-09T04:22:30.296Z,34.60
2023-02-09T04:24:56.904Z,34.90
2023-02-09T04:27:23.510Z,33.30
2023-02-09T04:29:50.101Z,33.90
2023-02-09T04:32:16.688Z,34.23
2023-02-09T04:34:43.289Z,33.67
2023-02-09T04:37:10.010Z,31.13
2023-02-09T04:39:36.772Z,33.20
2023-02-09T04:42:03.434Z,33.10
2023-02-09T04:44:30.112Z,33.73
2023-02-09T04:46:56.700Z,33.70
2023-02-09T04:49:23.307Z,31.37
2023-02-09T04:51:49.875Z,30.27
2023-02-09T04:54:16.449Z,30.03
2023-02-09T04:56:43.017Z,26.87
2023-02-09T04:59:28.769Z,27.00
2023-02-09T05:01:55.365Z,30.03
2023-02-09T05:04:21.975Z,28.30
2023-02-09T05:06:48.577Z,30.90
2023-02-09T05:09:15.183Z,34.17
2023-02-09T05:11:41.779Z,33.77
2023-02-09T05:14:08.404Z,29.07
2023-02-09T05:16:35.082Z,29.23
2023-02-09T05:19:01.736Z,28.90
2023-02-09T05:21:28.329Z,28.93
2023-02-09T05:23:54.947Z,26.10
2023-02-09T05:26:21.554Z,28.20
2023-02-09T05:28:48.174Z,27.43
2023-02-09T05:31:14.874Z,28.30
2023-02-09T05:33:41.618Z,32.30
2023-02-09T05:36:09.467Z,31.10
2023-02-09T05:38:36.630Z,28.30
2023-02-09T05:41:36.532Z,25.77
2023-02-09T05:44:04.303Z,29.27
2023-02-09T05:46:31.131Z,27.43
2023-02-09T05:48:57.789Z,27.30
2023-02-09T05:51:24.480Z,25.87
2023-02-09T05:53:53.308Z,28.80
2023-02-09T05:56:20.031Z,28.13
2023-02-09T05:58:46.639Z,24.40
2023-02-09T06:01:13.469Z,23.67
2023-02-09T06:03:40.142Z,23.20
2023-02-09T06:06:07.072Z,27.60
2023-02-09T06:08:33.691Z,27.07
2023-02-09T06:11:02.557Z,26.03
2023-02-09T06:13:29.231Z,26.83
2023-02-09T06:15:55.906Z,26.10
2023-02-09T06:18:22.550Z,24.47
2023-02-09T06:20:49.244Z,26.50
2023-02-09T06:23:15.826Z,24.73
2023-02-09T06:25:42.447Z,25.40
2023-02-09T06:28:09.107Z,25.10
2023-02-09T06:30:35.846Z,23.57
2023-02-09T06:33:02.580Z,24.60
2023-02-09T06:35:29.211Z,25.17
2023-02-09T06:37:59.181Z,23.63
2023-02-09T06:40:25.837Z,22.57
2023-02-09T06:42:52.481Z,21.47
2023-02-09T06:45:19.367Z,25.80
2023-02-09T06:47:46.918Z,23.63
2023-02-09T06:50:17.654Z,23.37
2023-02-09T06:52:45.004Z,23.07
2023-02-09T06:55:11.681Z,22.23
2023-02-09T06:57:38.783Z,26.10
2023-02-09T07:00:08.243Z,23.50
2023-02-09T07:02:35.442Z,24.57
2023-02-09T07:05:02.156Z,23.37
2023-02-09T07:07:28.759Z,26.30
2023-02-09T07:09:55.348Z,23.87
2023-02-09T07:12:22.412Z,22.90
2023-02-09T07:14:49.031Z,22.47
2023-02-09T07:17:15.691Z,22.37
2023-02-09T07:19:42.259Z,24.87
2023-02-09T07:22:08.973Z,23.80
2023-02-09T07:24:35.683Z,22.77
2023-02-09T07:27:04.631Z,26.23
2023-02-09T07:29:31.890Z,20.53
2023-02-09T07:31:59.133Z,23.47
2023-02-09T07:34:26.129Z,19.50
2023-02-09T07:36:52.744Z,20.53
2023-02-09T07:39:19.470Z,17.73
2023-02-09T07:41:46.123Z,24.43
2023-02-09T07:44:12.759Z,19.60
2023-02-09T07:46:39.453Z,22.57
2023-02-09T07:49:06.143Z,27.00
2023-02-09T07:51:34.289Z,20.60
2023-02-09T07:54:01.221Z,19.60
2023-02-09T07:56:28.636Z,24.57
2023-02-09T07:58:55.822Z,21.40
2023-02-09T08:01:23.054Z,17.60
2023-02-09T08:03:50.418Z,21.63
2023-02-09T08:06:42.486Z,23.23
2023-02-09T08:09:11.514Z,21.40
2023-02-09T08:11:49.774Z,21.30
2023-02-09T08:14:21.974Z,19.27
2023-02-09T08:16:51.270Z,23.07
2023-02-09T08:19:22.748Z,22.37
2023-02-09T08:21:50.079Z,22.53
2023-02-09T08:24:20.217Z,19.50
2023-02-09T08:26:46.957Z,23.73
2023-02-09T08:29:13.699Z,22.80
2023-02-09T08:31:40.723Z,19.60
2023-02-09T08:34:07.416Z,21.77
2023-02-09T08:36:37.346Z,22.03
2023-02-09T08:39:05.245Z,19.87
2023-02-09T08:41:31.985Z,19.00
2023-02-09T08:43:58.569Z,24.00
2023-02-09T08:46:25.404Z,23.87
2023-02-09T08:48:52.896Z,32.87
2023-02-09T08:51:19.613Z,27.23
2023-02-09T08:53:52.289Z,28.70
2023-02-09T08:56:21.063Z,18.87
2023-02-09T08:58:48.153Z,17.33
2023-02-09T09:01:16.864Z,17.13
2023-02-09T09:03:43.648Z,17.07
2023-02-09T09:06:11.871Z,32.80
2023-02-09T09:08:39.860Z,22.53
2023-02-09T09:11:12.898Z,19.70
2023-02-09T09:13:40.869Z,13.33
2023-02-09T09:16:13.378Z,14.43
2023-02-09T09:18:40.036Z,15.83
2023-02-09T09:21:06.603Z,18.57
2023-02-09T09:23:33.234Z,14.20
2023-02-09T09:26:04.060Z,24.13
2023-02-09T09:28:31.141Z,23.13
2023-02-09T09:31:01.960Z,18.60
2023-02-09T09:33:28.630Z,16.30
2023-02-09T09:35:55.236Z,23.13
2023-02-09T09:38:21.869Z,20.10
2023-02-09T09:40:48.640Z,17.30
2023-02-09T09:43:52.780Z,22.57
2023-02-09T09:46:23.607Z,17.20
2023-02-09T09:48:54.444Z,15.83
2023-02-09T09:51:34.097Z,42.90
2023-02-09T09:54:03.189Z,15.60
2023-02-09T09:56:31.627Z,18.53
2023-02-09T09:58:59.821Z,16.77
2023-02-09T10:01:30.649Z,17.07
2023-02-09T10:04:01.416Z,26.20
2023-02-09T10:06:32.717Z,25.20
2023-02-09T10:09:22.146Z,15.67
2023-02-09T10:11:54.808Z,16.03
2023-02-09T10:14:23.663Z,13.43
2023-02-09T10:16:50.664Z,17.70
2023-02-09T10:19:20.842Z,14.73
2023-02-09T10:21:48.913Z,13.17
2023-02-09T10:24:21.096Z,15.33
2023-02-09T10:27:24.262Z,16.87
2023-02-09T10:29:51.037Z,15.77
2023-02-09T10:32:27.797Z,16.00
2023-02-09T10:34:57.776Z,15.53
2023-02-09T10:37:29.634Z,15.13
2023-02-09T10:40:43.589Z,21.27
2023-02-09T10:43:33.743Z,14.07
2023-02-09T10:46:08.331Z,15.87
2023-02-09T10:48:41.129Z,26.90
2023-02-09T10:51:29.905Z,19.93
2023-02-09T10:54:01.097Z,18.80
2023-02-09T10:56:44.275Z,13.03
2023-02-09T10:59:25.620Z,17.03
2023-02-09T11:02:02.553Z,14.17
2023-02-09T11:04:40.300Z,12.60
2023-02-09T11:07:17.872Z,14.77
2023-02-09T11:09:50.260Z,14.60
2023-02-09T11:12:20.256Z,14.63
2023-02-09T11:14:47.034Z,19.03
2023-02-09T11:17:16.924Z,14.00
2023-02-09T11:20:26.734Z,11.37
2023-02-09T11:22:53.347Z,20.10
2023-02-09T11:25:50.682Z,13.20
2023-02-09T11:28:47.335Z,13.47
2023-02-09T11:31:51.753Z,12.53
2023-02-09T11:34:51.623Z,14.47
2023-02-09T11:37:42.424Z,12.50
2023-02-09T11:40:21.117Z,17.83
2023-02-09T11:43:11.077Z,17.23
2023-02-09T11:45:49.941Z,10.93
2023-02-09T11:48:22.517Z,14.60
2023-02-09T11:51:19.307Z,14.47
2023-02-09T11:54:04.576Z,17.60
2023-02-09T11:56:37.578Z,12.73
2023-02-09T11:59:07.715Z,14.30
2023-02-09T12:02:16.723Z,12.77
2023-02-09T12:04:58.585Z,16.07
2023-02-09T12:08:08.763Z,22.87
2023-02-09T12:10:48.550Z,14.43
2023-02-09T12:13:55.817Z,13.50
2023-02-09T12:16:28.218Z,12.83
2023-02-09T12:18:55.428Z,14.77
2023-02-09T12:21:32.444Z,15.27
2023-02-09T12:24:00.841Z,14.20
2023-02-09T12:26:44.239Z,19.53
2023-02-09T12:29:38.216Z,11.83
2023-02-09T12:32:04.862Z,14.07
2023-02-09T12:34:49.704Z,14.87
2023-02-09T12:37:29.069Z,15.63
2023-02-09T12:40:03.369Z,13.20
2023-02-09T12:42:53.134Z,12.07
2023-02-09T12:45:43.194Z,13.70
2023-02-09T12:48:09.937Z,14.33
2023-02-09T12:50:42.630Z,13.00
2023-02-09T12:53:24.683Z,12.90
2023-02-09T12:56:08.948Z,15.43
2023-02-09T12:58:37.922Z,15.93
2023-02-09T13:01:05.705Z,12.63
2023-02-09T13:03:40.489Z,15.10
2023-02-09T13:06:28.357Z,17.10
2023-02-09T13:08:59.292Z,13.30
2023-02-09T13:11:44.466Z,11.40
2023-02-09T13:14:13.266Z,15.43
2023-02-09T13:17:14.427Z,13.87
2023-02-09T13:19:52.632Z,13.80
2023-02-09T13:22:46.183Z,14.17
2023-02-09T13:25:37.250Z,14.73
2023-02-09T13:28:22.593Z,17.30
2023-02-09T13:30:49.466Z,12.93
2023-02-09T13:33:32.979Z,15.83
2023-02-09T13:36:27.482Z,16.77
2023-02-09T13:38:54.415Z,12.73
2023-02-09T13:41:36.179Z,14.30
2023-02-09T13:44:03.585Z,16.97
2023-02-09T13:46:35.069Z,15.77
2023-02-09T13:49:13.363Z,13.73
2023-02-09T13:51:40.196Z,14.87
2023-02-09T13:54:07.160Z,16.90
2023-02-09T13:56:36.920Z,15.67
2023-02-09T13:59:03.891Z,13.17
2023-02-09T14:01:34.055Z,20.73
2023-02-09T14:04:05.415Z,16.60
2023-02-09T14:07:05.403Z,18.20
2023-02-09T14:09:41.152Z,22.17
2023-02-09T14:12:16.576Z,16.83
2023-02-09T14:15:08.832Z,19.07
2023-02-09T14:17:35.697Z,19.60
2023-02-09T14:22:44.391Z,15.70
2023-02-09T14:25:15.307Z,19.40
2023-02-09T14:27:46.830Z,18.93
2023-02-09T14:30:26.354Z,19.50
2023-02-09T14:32:58.523Z,23.63
2023-02-09T14:36:14.937Z,15.23
2023-02-09T14:38:42.797Z,14.50
2023-02-09T14:41:29.121Z,15.97
2023-02-09T14:44:00.915Z,16.47
2023-02-09T14:46:28.099Z,23.37
2023-02-09T14:48:58.141Z,15.87
2023-02-09T14:51:27.506Z,18.03
2023-02-09T14:53:54.481Z,17.70
2023-02-09T14:56:30.088Z,16.13
2023-02-09T14:58:56.687Z,15.47
2023-02-09T15:01:23.425Z,18.80
2023-02-09T15:03:50.140Z,19.03
2023-02-09T15:06:16.846Z,17.70
2023-02-09T15:08:43.872Z,15.57
2023-02-09T15:11:42.726Z,17.17
2023-02-09T15:14:11.371Z,18.47
2023-02-09T15:16:38.179Z,16.37
2023-02-09T15:19:11.736Z,13.67
2023-02-09T15:21:38.437Z,13.27
2023-02-09T15:24:05.381Z,17.17
2023-02-09T15:26:36.356Z,17.63
2023-02-09T15:29:09.285Z,18.93
2023-02-09T15:31:36.082Z,16.17
2023-02-09T15:34:04.641Z,18.20
2023-02-09T15:36:31.478Z,17.10
2023-02-09T15:38:58.977Z,15.07
2023-02-09T15:41:44.357Z,15.67
2023-02-09T15:44:36.049Z,22.37
2023-02-09T15:47:21.285Z,18.20
2023-02-09T15:49:47.925Z,15.30
2023-02-09T15:52:16.279Z,17.80
2023-02-09T15:54:43.642Z,16.77
2023-02-09T15:57:12.817Z,18.57
2023-02-09T15:59:39.609Z,14.80
2023-02-09T16:02:14.382Z,15.40
2023-02-09T16:04:41.134Z,17.63
2023-02-09T16:07:12.567Z,16.07
2023-02-09T16:09:41.271Z,16.80
2023-02-09T16:12:11.147Z,16.83
2023-02-09T16:14:38.427Z,16.30
2023-02-09T16:17:05.528Z,20.50
2023-02-09T16:19:32.424Z,16.77
2023-02-09T16:22:03.045Z,18.00
2023-02-09T16:24:34.904Z,16.60
2023-02-09T16:27:04.432Z,16.03
2023-02-09T16:29:31.215Z,19.70
2023-02-09T16:31:58.457Z,15.77
2023-02-09T16:34:26.808Z,17.47
2023-02-09T16:36:53.513Z,30.10
2023-02-09T16:39:22.191Z,18.70
2023-02-09T16:41:52.641Z,13.43
2023-02-09T16:44:25.727Z,19.37
2023-02-09T16:46:55.260Z,19.90
2023-02-09T16:49:31.693Z,15.63
2023-02-09T16:52:02.473Z,19.37
2023-02-09T16:54:32.979Z,17.83
2023-02-09T16:57:00.839Z,19.50
2023-02-09T16:59:27.617Z,17.37
2023-02-09T17:01:54.494Z,16.20
2023-02-09T17:04:21.167Z,15.70
2023-02-09T17:06:50.777Z,16.07
2023-02-09T17:09:17.521Z,19.37
2023-02-09T17:11:47.335Z,15.27
2023-02-09T17:14:14.554Z,16.83
2023-02-09T17:16:46.047Z,16.47
2023-02-09T17:19:15.722Z,19.07
2023-02-09T17:21:42.582Z,15.40
2023-02-09T17:24:14.651Z,18.03
2023-02-09T17:26:41.883Z,15.53
2023-02-09T17:29:08.997Z,17.93
2023-02-09T17:31:52.389Z,16.67
2023-02-09T17:34:26.781Z,16.73
2023-02-09T17:36:53.545Z,14.63
2023-02-09T17:39:24.182Z,16.73
2023-02-09T17:41:52.733Z,17.80
2023-02-09T17:44:35.370Z,14.47
2023-02-09T17:47:17.548Z,18.03
2023-02-09T17:49:47.427Z,19.13
2023-02-09T17:52:19.078Z,22.87
2023-02-09T17:54:46.800Z,18.27
2023-02-09T17:57:17.721Z,10.13
2023-02-09T17:59:45.894Z,19.50
2023-02-09T18:02:17.932Z,17.20
2023-02-09T18:04:44.613Z,18.30
2023-02-09T18:07:12.692Z,19.07
2023-02-09T18:09:39.403Z,17.10
2023-02-09T18:12:27.235Z,20.73
2023-02-09T18:14:54.053Z,21.53
2023-02-09T18:17:20.927Z,18.70
2023-02-09T18:19:47.519Z,22.93
2023-02-09T18:22:17.114Z,20.80
2023-02-09T18:24:44.102Z,17.97
2023-02-09T18:27:17.232Z,19.20
2023-02-09T18:29:43.962Z,21.23
2023-02-09T18:32:14.368Z,21.30
2023-02-09T18:34:41.290Z,21.73
2023-02-09T18:37:07.946Z,23.57
2023-02-09T18:39:36.670Z,20.73
2023-02-09T18:42:03.409Z,20.57
2023-02-09T18:44:32.242Z,22.63
2023-02-09T18:47:02.412Z,25.30
2023-02-09T18:49:29.825Z,19.63
2023-02-09T18:51:58.846Z,21.17
2023-02-09T18:54:27.698Z,17.50
2023-02-09T18:56:55.375Z,17.33
2023-02-09T18:59:22.010Z,19.90
2023-02-09T19:01:49.843Z,25.57
2023-02-09T19:04:16.507Z,25.63
2023-02-09T19:06:43.108Z,23.93
2023-02-09T19:09:09.723Z,21.70
2023-02-09T19:11:36.365Z,24.77
2023-02-09T19:14:21.610Z,22.63
2023-02-09T19:16:48.334Z,22.60
2023-02-09T19:19:16.051Z,20.83
2023-02-09T19:21:42.761Z,27.67
2023-02-09T19:24:09.395Z,24.33
2023-02-09T19:26:36.433Z,12.77
2023-02-09T19:29:03.060Z,24.80
2023-02-09T19:31:29.795Z,27.17
2023-02-09T19:33:57.588Z,23.87
2023-02-09T19:36:27.524Z,21.77
2023-02-09T19:38:54.966Z,24.37
2023-02-09T19:41:23.355Z,23.07
2023-02-09T19:43:54.725Z,20.40
2023-02-09T19:46:21.498Z,21.73
2023-02-09T19:48:48.578Z,23.60
2023-02-09T19:51:15.438Z,20.93
2023-02-09T19:53:42.342Z,21.77
2023-02-09T19:56:16.731Z,23.27
2023-02-09T19:58:44.323Z,19.63
2023-02-09T20:01:11.432Z,27.17
2023-02-09T20:03:38.870Z,24.20
2023-02-09T20:06:11.398Z,24.80
2023-02-09T20:08:39.310Z,22.37
2023-02-09T20:11:07.675Z,28.00
2023-02-09T20:13:35.084Z,26.17
2023-02-09T20:16:06.494Z,22.93
2023-02-09T20:18:33.118Z,26.80
2023-02-09T20:20:59.738Z,25.30
2023-02-09T20:23:26.340Z,24.37
2023-02-09T20:25:53.248Z,16.97
2023-02-09T20:28:21.208Z,24.90
2023-02-09T20:30:48.329Z,26.07
2023-02-09T20:33:15.318Z,25.27
2023-02-09T20:35:46.061Z,24.20
2023-02-09T20:38:15.779Z,25.33
2023-02-09T20:40:42.805Z,24.07
2023-02-09T20:43:30.054Z,24.83
2023-02-09T20:46:15.696Z,26.67
2023-02-09T20:48:42.355Z,25.80
2023-02-09T20:51:08.979Z,23.80
2023-02-09T20:53:35.586Z,25.43
2023-02-09T20:56:02.185Z,25.47
2023-02-09T20:58:28.797Z,13.13
2023-02-09T21:00:55.500Z,25.43
2023-02-09T21:03:22.138Z,27.77
2023-02-09T21:05:48.785Z,23.87
2023-02-09T21:08:15.450Z,18.80
2023-02-09T21:10:42.181Z,25.43
2023-02-09T21:13:09.707Z,23.63
2023-02-09T21:15:40.578Z,29.70
2023-02-09T21:18:07.549Z,25.00
2023-02-09T21:20:35.099Z,28.47
2023-02-09T21:23:03.251Z,31.83
2023-02-09T21:25:30.302Z,30.13
2023-02-09T21:27:59.535Z,27.23
2023-02-09T21:30:27.396Z,31.70
2023-02-09T21:32:55.261Z,27.03
2023-02-09T21:35:22.704Z,26.80
2023-02-09T21:37:49.387Z,31.53
2023-02-09T21:40:16.249Z,25.70
2023-02-09T21:42:43.361Z,25.03
2023-02-09T21:45:10.004Z,26.03
2023-02-09T21:47:38.795Z,28.07
2023-02-09T21:50:08.285Z,29.77
2023-02-09T21:52:35.716Z,26.63
2023-02-09T21:55:02.919Z,27.43
2023-02-09T21:57:29.647Z,29.77
2023-02-09T21:59:56.643Z,26.20
2023-02-09T22:02:23.281Z,29.63
2023-02-09T22:04:50.268Z,28.93
2023-02-09T22:07:16.924Z,28.63
2023-02-09T22:09:43.534Z,29.87
2023-02-09T22:12:10.149Z,32.87
2023-02-09T22:14:37.098Z,27.83
2023-02-09T22:17:03.765Z,28.67
2023-02-09T22:19:30.414Z,28.40
2023-02-09T22:21:57.958Z,30.63
2023-02-09T22:24:25.223Z,33.60
2023-02-09T22:26:51.960Z,27.07
2023-02-09T22:29:18.957Z,26.93
2023-02-09T22:31:46.224Z,26.93
2023-02-09T22:34:13.179Z,29.43
2023-02-09T22:36:40.085Z,33.13
2023-02-09T22:39:07.458Z,31.80
2023-02-09T22:41:34.499Z,32.03
2023-02-09T22:44:03.612Z,29.40
2023-02-09T22:46:33.024Z,32.50
2023-02-09T22:49:02.551Z,28.10
2023-02-09T22:51:30.574Z,30.80
2023-02-09T22:53:58.593Z,36.77
2023-02-09T22:56:26.772Z,30.43
2023-02-09T22:58:54.275Z,30.60
2023-02-09T23:01:21.517Z,25.67
2023-02-09T23:03:48.595Z,37.23
2023-02-09T23:06:18.718Z,32.90
2023-02-09T23:08:45.398Z,33.33
2023-02-09T23:11:14.934Z,34.67
2023-02-09T23:13:42.321Z,32.13
2023-02-09T23:16:14.841Z,36.70
2023-02-09T23:18:47.141Z,33.40
2023-02-09T23:21:14.373Z,29.77
2023-02-09T23:23:41.105Z,27.63
2023-02-09T23:26:07.760Z,35.03
2023-02-09T23:28:34.747Z,35.63
2023-02-09T23:31:07.731Z,36.93
2023-02-09T23:33:36.097Z,34.57
2023-02-09T23:36:07.423Z,28.80
2023-02-09T23:38:34.554Z,33.80
2023-02-09T23:41:06.812Z,31.33
2023-02-09T23:43:34.424Z,31.37
2023-02-09T23:46:06.001Z,33.47
2023-02-09T23:48:33.254Z,24.60
2023-02-09T23:51:05.094Z,10.93
2023-02-09T23:53:32.184Z,30.40
2023-02-09T23:56:03.451Z,29.47
2023-02-09T23:58:31.782Z,30.30
